Time;durP1;ratioP1;P1;durP2;ratioP2;P2;SDS_P1;SDS_P2;PMS_P1;PMS_P2;Temp;Humidity;BMP_temperature;BMP_pressure;BME280_temperature;BME280_humidity;BME280_pressure;Samples;Min_cycle;Max_cycle;Signal;HPM_P1;HPM_P2
2021/06/22 00:05:31;;;;;;;0.67;0.33;;;21.50;99.90;;;;;;20976468;23;20235;-68
2021/06/22 00:15:36;;;;;;;0.70;0.37;;;21.50;99.90;;;;;;20992080;28;20321;-68
2021/06/22 00:25:40;;;;;;;0.73;0.40;;;21.40;99.90;;;;;;21009012;28;20196;-68
2021/06/22 00:35:45;;;;;;;1.00;0.90;;;21.30;99.90;;;;;;20995600;28;20227;-68
2021/06/22 00:45:48;;;;;;;2.90;0.50;;;21.20;99.90;;;;;;20995939;28;20642;-68
2021/06/22 00:55:55;;;;;;;0.20;0.10;;;21.10;99.90;;;;;;20994697;28;20228;-69
2021/06/22 01:05:59;;;;;;;0.53;0.50;;;21.50;99.90;;;;;;21060014;23;20224;-68
2021/06/22 01:16:04;;;;;;;0.20;0.20;;;21.90;99.90;;;;;;21075457;28;20281;-70
2021/06/22 01:26:10;;;;;;;0.20;0.20;;;21.40;99.90;;;;;;21074966;28;20224;-68
2021/06/22 01:36:14;;;;;;;0.20;0.00;;;20.60;99.90;;;;;;21074384;28;20230;-68
2021/06/22 01:46:19;;;;;;;0.33;0.23;;;20.80;99.90;;;;;;21073260;28;20653;-69
2021/06/22 01:56:25;;;;;;;0.40;0.20;;;20.70;99.90;;;;;;21073451;28;20706;-69
2021/06/22 02:06:30;;;;;;;0.83;0.67;;;20.70;99.90;;;;;;20962522;22;20321;-70
2021/06/22 02:16:34;;;;;;;2.27;1.17;;;20.80;99.90;;;;;;20906522;28;20583;-69
2021/06/22 02:26:39;;;;;;;12.50;1.30;;;20.70;99.90;;;;;;20905047;28;20209;-69
2021/06/22 02:36:42;;;;;;;3.93;0.67;;;21.40;99.90;;;;;;20904951;28;20312;-68
2021/06/22 02:46:47;;;;;;;0.60;0.60;;;21.40;99.90;;;;;;20903644;28;20598;-67
2021/06/22 02:56:51;;;;;;;0.20;0.10;;;21.40;99.90;;;;;;20902527;28;20276;-67
2021/06/22 03:06:56;;;;;;;0.60;0.40;;;21.30;99.90;;;;;;20885222;28;20682;-68
2021/06/22 03:17:00;;;;;;;0.93;0.60;;;20.90;99.90;;;;;;20901871;28;20690;-68
2021/06/22 03:27:06;;;;;;;2.00;0.80;;;21.00;99.90;;;;;;20834453;28;20260;-68
2021/06/22 03:37:10;;;;;;;0.87;0.30;;;21.10;99.90;;;;;;20818417;28;20767;-69
2021/06/22 03:47:15;;;;;;;0.97;0.53;;;20.80;99.90;;;;;;20816138;28;20208;-69
2021/06/22 03:57:19;;;;;;;3.40;0.60;;;20.70;99.90;;;;;;20817900;28;20312;-68
2021/06/22 04:07:24;;;;;;;0.40;0.33;;;20.40;99.90;;;;;;20970837;22;20255;-70
2021/06/22 04:17:27;;;;;;;0.60;0.40;;;20.40;99.90;;;;;;20997350;28;20540;-68
2021/06/22 04:27:32;;;;;;;1.23;0.87;;;20.80;99.90;;;;;;20996607;28;20274;-68
2021/06/22 04:37:36;;;;;;;7.83;0.77;;;21.00;99.90;;;;;;20994737;28;20225;-69
2021/06/22 04:47:41;;;;;;;6.33;0.33;;;21.50;99.90;;;;;;20994530;28;20204;-69
2021/06/22 04:57:46;;;;;;;8.40;0.77;;;21.40;99.90;;;;;;20993555;28;20621;-67
2021/06/22 05:07:51;;;;;;;0.40;0.40;;;21.40;99.90;;;;;;21063386;28;20227;-68
2021/06/22 05:17:55;;;;;;;0.40;0.40;;;21.40;99.90;;;;;;21075287;28;20215;-67
2021/06/22 05:28:01;;;;;;;5.43;1.30;;;21.20;99.90;;;;;;21006598;28;20197;-67
2021/06/22 05:38:05;;;;;;;12.10;0.70;;;21.50;99.90;;;;;;20976709;28;20224;-67
2021/06/22 05:48:10;;;;;;;1.33;1.20;;;21.70;99.90;;;;;;20990228;28;20279;-67
2021/06/22 05:58:14;;;;;;;1.93;1.53;;;22.00;99.90;;;;;;20988949;28;20319;-67
2021/06/22 06:08:19;;;;;;;1.13;0.63;;;22.20;99.90;;;;;;20991887;28;20720;-65
2021/06/22 06:18:23;;;;;;;0.70;0.37;;;22.20;99.90;;;;;;20980328;28;20275;-68
2021/06/22 06:28:31;;;;;;;0.83;0.43;;;22.20;99.90;;;;;;20966472;28;20627;-70
2021/06/22 06:38:34;;;;;;;0.40;0.30;;;22.40;99.90;;;;;;20984278;28;20311;-69
2021/06/22 06:48:41;;;;;;;1.37;0.70;;;22.50;99.90;;;;;;20982547;28;20236;-70
2021/06/22 06:58:45;;;;;;;5.50;0.60;;;22.60;99.90;;;;;;20983090;28;20225;-71
2021/06/22 07:08:50;;;;;;;0.30;0.30;;;22.70;99.90;;;;;;21033285;28;20726;-69
2021/06/22 07:18:53;;;;;;;5.20;0.60;;;22.90;99.90;;;;;;21047269;28;20318;-70
2021/06/22 07:28:59;;;;;;;1.03;0.57;;;23.10;99.90;;;;;;20981708;28;20220;-70
2021/06/22 07:39:03;;;;;;;0.20;0.10;;;22.80;99.90;;;;;;20978743;28;20225;-71
2021/06/22 07:49:08;;;;;;;3.80;0.33;;;23.00;99.90;;;;;;20980015;28;20203;-68
2021/06/22 07:59:12;;;;;;;2.33;0.60;;;23.20;99.90;;;;;;20980957;28;20220;-68
2021/06/22 08:09:17;;;;;;;0.20;0.10;;;23.10;99.90;;;;;;20977257;28;20240;-66
2021/06/22 08:19:21;;;;;;;1.80;0.40;;;23.00;99.90;;;;;;20991899;28;20220;-66
2021/06/22 08:29:26;;;;;;;0.50;0.30;;;23.20;99.90;;;;;;20967056;28;20225;-68
2021/06/22 08:39:29;;;;;;;2.40;1.47;;;23.20;99.90;;;;;;20980280;28;20331;-69
2021/06/22 08:49:35;;;;;;;0.40;0.33;;;23.50;99.90;;;;;;20984626;28;20605;-69
2021/06/22 08:59:41;;;;;;;0.60;0.30;;;23.60;99.90;;;;;;20978348;28;20315;-69
2021/06/22 09:09:46;;;;;;;0.63;0.17;;;23.50;99.90;;;;;;21077101;28;20215;-68
2021/06/22 09:19:51;;;;;;;0.20;0.13;;;23.80;99.90;;;;;;21054934;28;20215;-68
2021/06/22 09:29:56;;;;;;;0.50;0.50;;;24.00;99.90;;;;;;21074997;28;20214;-68
2021/06/22 09:40:00;;;;;;;0.73;0.57;;;24.50;99.90;;;;;;21075015;28;20220;-69
2021/06/22 09:50:25;;;;;;;4.05;0.35;;;24.90;99.90;;;;;;21072899;28;20196;-68
2021/06/22 10:00:37;;;;;;;0.35;0.35;;;25.00;99.90;;;;;;21054560;28;20279;-69
2021/06/22 10:10:42;;;;;;;0.40;0.40;;;25.00;99.90;;;;;;21072615;28;20321;-69
2021/06/22 10:20:48;;;;;;;0.50;0.32;;;25.20;99.90;;;;;;21083114;28;20285;-69
2021/06/22 10:30:53;;;;;;;5.18;0.82;;;25.80;99.90;;;;;;21069093;28;20311;-68
2021/06/22 10:40:58;;;;;;;0.50;0.43;;;25.80;99.90;;;;;;21069589;28;20223;-68
2021/06/22 10:51:30;;;;;;;1.48;0.77;;;26.00;99.90;;;;;;21068376;28;20196;-69
2021/06/22 11:01:57;;;;;;;0.38;0.25;;;26.00;99.90;;;;;;21069142;28;20259;-68
2021/06/22 11:12:26;;;;;;;0.32;0.32;;;26.50;99.90;;;;;;21066898;28;20611;-69
2021/06/22 11:23:08;;;;;;;0.90;0.85;;;26.90;99.90;;;;;;21050583;28;20243;-67
2021/06/22 11:33:41;;;;;;;1.90;0.70;;;27.70;99.90;;;;;;21062387;28;20223;-68
2021/06/22 11:44:18;;;;;;;0.30;0.20;;;29.00;99.90;;;;;;21064650;28;20688;-68
2021/06/22 11:54:59;;;;;;;2.42;0.98;;;29.60;99.90;;;;;;21075533;28;20638;-69
2021/06/22 12:05:11;;;;;;;0.32;0.30;;;30.30;99.90;;;;;;21064641;28;20580;-69
2021/06/22 12:15:29;;;;;;;0.55;0.55;;;30.40;99.90;;;;;;21064718;28;20188;-70
2021/06/22 12:25:36;;;;;;;1.65;1.13;;;30.40;99.90;;;;;;21071652;28;20257;-69
2021/06/22 12:35:44;;;;;;;0.30;0.20;;;29.60;99.90;;;;;;21080067;28;20203;-69
2021/06/22 12:46:01;;;;;;;0.30;0.30;;;30.80;99.90;;;;;;21078849;28;20627;-68
2021/06/22 12:56:15;;;;;;;1.05;0.50;;;32.00;99.90;;;;;;21079022;28;20189;-68
2021/06/22 13:06:26;;;;;;;0.20;0.10;;;31.00;99.90;;;;;;21079211;28;20767;-69
2021/06/22 13:16:32;;;;;;;1.00;0.40;;;31.10;99.90;;;;;;21080684;28;20208;-68
2021/06/22 13:26:39;;;;;;;0.35;0.25;;;31.40;99.90;;;;;;21088985;28;20667;-70
2021/06/22 13:36:49;;;;;;;2.67;0.40;;;31.60;99.90;;;;;;21074709;28;20555;-69
2021/06/22 13:46:53;;;;;;;0.77;0.28;;;32.20;99.90;;;;;;21074402;28;20246;-68
2021/06/22 13:56:59;;;;;;;0.40;0.30;;;32.50;99.90;;;;;;21072809;28;20267;-68
2021/06/22 14:07:05;;;;;;;0.43;0.28;;;31.60;99.90;;;;;;21071991;28;20246;-74
2021/06/22 14:17:10;;;;;;;1.45;0.65;;;31.50;99.90;;;;;;21071383;28;20242;-69
2021/06/22 14:27:14;;;;;;;3.88;0.65;;;32.30;99.90;;;;;;20985024;28;20243;-69
2021/06/22 14:37:20;;;;;;;2.47;0.63;;;32.20;99.90;;;;;;20986717;28;20287;-68
2021/06/22 14:47:27;;;;;;;1.23;0.75;;;33.20;99.90;;;;;;20983190;28;20247;-68
2021/06/22 14:57:34;;;;;;;1.00;0.90;;;33.20;99.90;;;;;;20984454;28;20213;-66
2021/06/22 15:07:38;;;;;;;0.38;0.25;;;33.70;99.90;;;;;;20994874;28;20231;-67
2021/06/22 15:17:44;;;;;;;0.55;0.22;;;33.30;99.90;;;;;;21073600;28;20233;-65
2021/06/22 15:27:52;;;;;;;0.40;0.40;;;34.10;99.90;;;;;;20991062;28;20540;-69
2021/06/22 15:37:57;;;;;;;0.25;0.20;;;31.10;99.90;;;;;;20981042;28;20205;-66
2021/06/22 15:48:01;;;;;;;0.50;0.32;;;33.10;99.90;;;;;;20981014;28;20219;-68
2021/06/22 15:58:07;;;;;;;1.00;0.88;;;32.10;99.90;;;;;;20985117;28;20215;-69
2021/06/22 16:08:11;;;;;;;0.38;0.38;;;31.30;99.90;;;;;;20996700;28;20233;-69
2021/06/22 16:18:17;;;;;;;3.85;0.75;;;31.40;99.90;;;;;;20997335;28;20677;-68
2021/06/22 16:28:24;;;;;;;1.77;0.32;;;30.50;99.90;;;;;;20992513;28;20561;-68
2021/06/22 16:38:33;;;;;;;0.20;0.10;;;31.40;99.90;;;;;;20995816;28;20626;-67
2021/06/22 16:48:37;;;;;;;0.45;0.32;;;28.10;99.90;;;;;;20994625;28;20197;-68
2021/06/22 16:58:43;;;;;;;0.57;0.57;;;26.80;99.90;;;;;;20992014;28;20644;-70
2021/06/22 17:08:50;;;;;;;1.60;1.50;;;29.60;99.90;;;;;;20992784;28;20251;-67
2021/06/22 17:18:56;;;;;;;2.13;0.57;;;26.90;99.90;;;;;;20989045;28;20311;-69
2021/06/22 17:29:00;;;;;;;4.90;1.05;;;26.00;99.90;;;;;;21063019;28;20207;-68
2021/06/22 17:39:05;;;;;;;1.88;1.30;;;25.70;99.90;;;;;;21072138;28;20727;-69
2021/06/22 17:49:10;;;;;;;0.70;0.50;;;27.70;99.90;;;;;;21074311;28;20292;-70
2021/06/22 17:59:15;;;;;;;2.00;1.70;;;30.10;99.90;;;;;;21054108;28;20314;-69
2021/06/22 18:09:19;;;;;;;1.08;0.63;;;29.40;99.90;;;;;;21071829;28;20224;-70
2021/06/22 18:19:24;;;;;;;0.25;0.25;;;28.40;99.90;;;;;;21066599;28;20346;-69
2021/06/22 18:29:29;;;;;;;0.57;0.50;;;26.20;99.90;;;;;;21069432;28;20203;-69
2021/06/22 18:39:35;;;;;;;0.20;0.20;;;25.80;99.90;;;;;;21069942;28;20223;-67
2021/06/22 18:49:40;;;;;;;1.77;0.50;;;26.20;99.90;;;;;;21067352;28;20196;-68
2021/06/22 18:59:46;;;;;;;3.67;0.60;;;27.00;99.90;;;;;;21068041;28;20316;-69
2021/06/22 19:09:51;;;;;;;0.50;0.20;;;25.80;99.90;;;;;;21066401;28;20283;-67
2021/06/22 19:19:57;;;;;;;6.80;0.68;;;24.70;99.90;;;;;;21060201;28;20585;-68
2021/06/22 19:30:02;;;;;;;4.63;0.70;;;24.40;99.90;;;;;;21064389;28;20218;-68
2021/06/22 19:40:10;;;;;;;0.60;0.60;;;24.20;99.90;;;;;;21066185;28;20314;-67
2021/06/22 19:50:15;;;;;;;6.93;1.37;;;24.00;99.90;;;;;;21079517;28;20625;-67
2021/06/22 20:00:22;;;;;;;4.38;3.97;;;23.60;99.90;;;;;;21096054;28;20247;-68
2021/06/22 20:10:28;;;;;;;0.53;0.33;;;23.70;99.90;;;;;;21067059;28;20321;-68
2021/06/22 20:20:35;;;;;;;0.93;0.50;;;23.70;99.90;;;;;;21066211;28;20638;-69
2021/06/22 20:30:39;;;;;;;2.47;1.10;;;23.40;99.90;;;;;;21065071;28;20206;-69
2021/06/22 20:40:47;;;;;;;0.43;0.43;;;23.10;99.90;;;;;;21031456;28;20224;-67
2021/06/22 20:50:55;;;;;;;0.53;0.43;;;23.00;99.90;;;;;;21078043;28;20689;-68
2021/06/22 21:01:02;;;;;;;1.97;0.23;;;22.80;99.90;;;;;;21081341;28;20335;-68
2021/06/22 21:11:06;;;;;;;0.33;0.30;;;22.90;99.90;;;;;;21079567;28;20309;-69
2021/06/22 21:21:14;;;;;;;0.80;0.57;;;22.50;99.90;;;;;;21090531;28;20231;-70
2021/06/22 21:31:19;;;;;;;4.33;0.40;;;22.30;99.90;;;;;;21060276;28;20287;-69
2021/06/22 21:41:25;;;;;;;0.43;0.43;;;22.30;99.90;;;;;;21076624;28;20311;-69
2021/06/22 21:51:30;;;;;;;0.40;0.33;;;22.30;99.90;;;;;;21075661;28;20547;-70
2021/06/22 22:01:36;;;;;;;0.23;0.23;;;22.10;99.90;;;;;;21073446;28;20691;-69
2021/06/22 22:11:40;;;;;;;0.30;0.20;;;21.80;99.90;;;;;;21055983;28;20241;-70
2021/06/22 22:21:45;;;;;;;0.40;0.40;;;21.80;99.90;;;;;;21081442;28;20310;-67
2021/06/22 22:31:48;;;;;;;0.60;0.40;;;21.60;99.90;;;;;;21085757;28;20220;-69
2021/06/22 22:41:54;;;;;;;1.70;0.87;;;21.50;99.90;;;;;;21071491;28;20472;-69
2021/06/22 22:51:57;;;;;;;0.37;0.27;;;21.20;99.90;;;;;;21072010;28;20567;-70
2021/06/22 23:02:02;;;;;;;0.67;0.67;;;21.20;99.90;;;;;;21071287;28;20315;-69
2021/06/22 23:12:07;;;;;;;1.37;0.93;;;21.20;99.90;;;;;;21069216;28;20196;-69
2021/06/22 23:22:12;;;;;;;0.47;0.47;;;21.10;99.90;;;;;;21070344;28;20259;-69
2021/06/22 23:32:15;;;;;;;2.73;0.33;;;21.20;99.90;;;;;;21068778;28;20219;-69
2021/06/22 23:42:21;;;;;;;0.20;0.20;;;21.30;99.90;;;;;;21067945;28;20322;-69
2021/06/22 23:52:24;;;;;;;1.20;0.80;;;21.40;99.90;;;;;;21067499;28;20203;-69
